Richfield, Illinois
Current Conditions -  °F | °C
As of 2:54 PM on Friday 21 Nov 2014 (Local Time) from KUIN Reporting Station
Overcast Overcast  
Wind Chill: 30°   Ceiling: 3000
Heat Index: 38°   Visibility: 10mi
Dew Point: 17°   Wind: 13mph
Humidity: 43%   Direction: 130°SE
Pressure: 30.25"   Gusts: NA
Location:  39.8007°N, 91.1205°W
Report Text: KUIN 212054Z AUTO 13011KT 10SM OVC030 03/M08 A3025 RMK AO2 SLP252 T00331083 56028
Loading
Personal Weather Stations






























Interactive Weather Map New forecast layout! Learn more

10-Day Weather Forecast

Advertisements
Track Severe Weather on mobile